sensor_id;sensor_type;location;lat;lon;timestamp;temperature;humidity
39585;DHT22;25278;53.674;10.014;2022-10-17T03:31:08;12.60;99.90
39585;DHT22;25278;53.674;10.014;2022-10-17T03:33:52;12.60;99.90
39585;DHT22;25278;53.674;10.014;2022-10-17T03:36:21;12.60;99.90
39585;DHT22;25278;53.674;10.014;2022-10-17T03:38:56;12.60;99.90
39585;DHT22;25278;53.674;10.014;2022-10-17T03:41:43;12.60;99.90
39585;DHT22;25278;53.674;10.014;2022-10-17T03:44:08;12.50;99.90
39585;DHT22;25278;53.674;10.014;2022-10-17T03:46:35;12.50;99.90
39585;DHT22;25278;53.674;10.014;2022-10-17T03:49:45;12.50;99.90
39585;DHT22;25278;53.674;10.014;2022-10-17T03:52:46;12.50;99.90
39585;DHT22;25278;53.674;10.014;2022-10-17T04:02:56;12.50;99.90
39585;DHT22;25278;53.674;10.014;2022-10-17T04:06:17;12.40;99.90
39585;DHT22;25278;53.674;10.014;2022-10-17T04:09:49;12.40;99.90
39585;DHT22;25278;53.674;10.014;2022-10-17T04:12:55;12.40;99.90
39585;DHT22;25278;53.674;10.014;2022-10-17T04:15:22;12.30;99.90
39585;DHT22;25278;53.674;10.014;2022-10-17T04:18:23;12.30;99.90
39585;DHT22;25278;53.674;10.014;2022-10-17T04:20:49;12.40;99.90
39585;DHT22;25278;53.674;10.014;2022-10-17T04:23:15;12.40;99.90
39585;DHT22;25278;53.674;10.014;2022-10-17T04:25:40;12.30;99.90
39585;DHT22;25278;53.674;10.014;2022-10-17T04:28:06;12.30;99.90
39585;DHT22;25278;53.674;10.014;2022-10-17T04:30:31;12.20;99.90
39585;DHT22;25278;53.674;10.014;2022-10-17T04:32:57;12.20;99.90
39585;DHT22;25278;53.674;10.014;2022-10-17T04:35:23;12.20;99.90
39585;DHT22;25278;53.674;10.014;2022-10-17T04:37:48;12.20;99.90
39585;DHT22;25278;53.674;10.014;2022-10-17T04:40:14;12.20;99.90
39585;DHT22;25278;53.674;10.014;2022-10-17T04:42:40;12.20;99.90
39585;DHT22;25278;53.674;10.014;2022-10-17T04:45:05;12.10;99.90
39585;DHT22;25278;53.674;10.014;2022-10-17T04:47:31;12.00;99.90
39585;DHT22;25278;53.674;10.014;2022-10-17T04:49:57;12.10;99.90
39585;DHT22;25278;53.674;10.014;2022-10-17T04:52:23;12.10;99.90
39585;DHT22;25278;53.674;10.014;2022-10-17T04:54:49;12.00;99.90
39585;DHT22;25278;53.674;10.014;2022-10-17T04:57:15;11.90;99.90
39585;DHT22;25278;53.674;10.014;2022-10-17T04:59:40;11.90;99.90
39585;DHT22;25278;53.674;10.014;2022-10-17T05:02:06;11.90;99.90
39585;DHT22;25278;53.674;10.014;2022-10-17T05:04:31;11.90;99.90
39585;DHT22;25278;53.674;10.014;2022-10-17T05:06:57;11.90;99.90
39585;DHT22;25278;53.674;10.014;2022-10-17T05:09:23;11.90;99.90
39585;DHT22;25278;53.674;10.014;2022-10-17T05:11:48;11.90;99.90
39585;DHT22;25278;53.674;10.014;2022-10-17T05:14:14;11.90;99.90
39585;DHT22;25278;53.674;10.014;2022-10-17T05:16:40;11.90;99.90
39585;DHT22;25278;53.674;10.014;2022-10-17T05:19:05;11.90;99.90
39585;DHT22;25278;53.674;10.014;2022-10-17T05:21:31;11.80;99.90
39585;DHT22;25278;53.674;10.014;2022-10-17T05:23:57;11.70;99.90
39585;DHT22;25278;53.674;10.014;2022-10-17T05:26:23;11.70;99.90
39585;DHT22;25278;53.674;10.014;2022-10-17T05:28:48;11.60;99.90
39585;DHT22;25278;53.674;10.014;2022-10-17T05:31:16;11.60;99.90
39585;DHT22;25278;53.674;10.014;2022-10-17T05:33:42;11.50;99.90
39585;DHT22;25278;53.674;10.014;2022-10-17T05:36:11;11.50;99.90
39585;DHT22;25278;53.674;10.014;2022-10-17T05:38:36;11.50;99.90
39585;DHT22;25278;53.674;10.014;2022-10-17T05:41:04;11.50;99.90
39585;DHT22;25278;53.674;10.014;2022-10-17T05:43:30;11.50;99.90
39585;DHT22;25278;53.674;10.014;2022-10-17T05:45:56;11.50;99.90
39585;DHT22;25278;53.674;10.014;2022-10-17T05:48:23;11.50;99.90
39585;DHT22;25278;53.674;10.014;2022-10-17T05:50:55;11.60;99.90
39585;DHT22;25278;53.674;10.014;2022-10-17T05:53:21;11.50;99.90
39585;DHT22;25278;53.674;10.014;2022-10-17T05:56:00;11.60;99.90
39585;DHT22;25278;53.674;10.014;2022-10-17T05:58:27;11.60;99.90
39585;DHT22;25278;53.674;10.014;2022-10-17T06:01:01;11.50;99.90
39585;DHT22;25278;53.674;10.014;2022-10-17T06:03:29;11.50;99.90
39585;DHT22;25278;53.674;10.014;2022-10-17T06:05:55;11.50;99.90
39585;DHT22;25278;53.674;10.014;2022-10-17T06:08:21;11.50;99.90
39585;DHT22;25278;53.674;10.014;2022-10-17T06:10:48;11.50;99.90
39585;DHT22;25278;53.674;10.014;2022-10-17T06:13:16;11.50;99.90
39585;DHT22;25278;53.674;10.014;2022-10-17T06:15:47;11.50;99.90
39585;DHT22;25278;53.674;10.014;2022-10-17T06:18:13;11.50;99.90
39585;DHT22;25278;53.674;10.014;2022-10-17T06:20:39;11.60;99.90
39585;DHT22;25278;53.674;10.014;2022-10-17T06:23:07;11.60;99.90
39585;DHT22;25278;53.674;10.014;2022-10-17T06:25:33;11.60;99.90
39585;DHT22;25278;53.674;10.014;2022-10-17T06:27:59;11.60;99.90
39585;DHT22;25278;53.674;10.014;2022-10-17T06:30:24;11.70;99.90
39585;DHT22;25278;53.674;10.014;2022-10-17T06:33:20;11.80;99.90
39585;DHT22;25278;53.674;10.014;2022-10-17T06:36:02;11.90;99.90
39585;DHT22;25278;53.674;10.014;2022-10-17T06:38:27;11.90;99.90
39585;DHT22;25278;53.674;10.014;2022-10-17T06:40:53;12.00;99.90
39585;DHT22;25278;53.674;10.014;2022-10-17T06:43:21;12.00;99.90
39585;DHT22;25278;53.674;10.014;2022-10-17T06:45:49;12.10;99.90
39585;DHT22;25278;53.674;10.014;2022-10-17T06:48:15;12.20;99.90
39585;DHT22;25278;53.674;10.014;2022-10-17T06:50:40;12.20;99.90
39585;DHT22;25278;53.674;10.014;2022-10-17T06:53:09;12.30;99.90
39585;DHT22;25278;53.674;10.014;2022-10-17T06:55:40;12.40;99.90
39585;DHT22;25278;53.674;10.014;2022-10-17T07:05:52;12.70;99.90
39585;DHT22;25278;53.674;10.014;2022-10-17T07:08:18;13.10;99.90
39585;DHT22;25278;53.674;10.014;2022-10-17T07:10:44;13.20;99.90
39585;DHT22;25278;53.674;10.014;2022-10-17T07:13:10;13.30;99.90
39585;DHT22;25278;53.674;10.014;2022-10-17T07:15:36;13.30;99.90
39585;DHT22;25278;53.674;10.014;2022-10-17T07:18:02;13.40;99.90
39585;DHT22;25278;53.674;10.014;2022-10-17T07:20:28;13.60;99.90
39585;DHT22;25278;53.674;10.014;2022-10-17T07:39:58;13.60;99.90
39585;DHT22;25278;53.674;10.014;2022-10-17T07:42:24;14.80;99.90
39585;DHT22;25278;53.674;10.014;2022-10-17T07:44:49;14.90;99.90
39585;DHT22;25278;53.674;10.014;2022-10-17T07:47:15;15.00;99.90
39585;DHT22;25278;53.674;10.014;2022-10-17T08:56:24;17.90;99.90
39585;DHT22;25278;53.674;10.014;2022-10-17T08:58:51;18.00;99.90
39585;DHT22;25278;53.674;10.014;2022-10-17T09:06:28;18.30;99.90
39585;DHT22;25278;53.674;10.014;2022-10-17T09:11:42;18.60;99.90
39585;DHT22;25278;53.674;10.014;2022-10-17T09:17:26;18.70;99.90
39585;DHT22;25278;53.674;10.014;2022-10-17T09:20:17;18.70;99.90
39585;DHT22;25278;53.674;10.014;2022-10-17T09:23:11;18.60;99.90
39585;DHT22;25278;53.674;10.014;2022-10-17T09:25:43;18.70;99.90
39585;DHT22;25278;53.674;10.014;2022-10-17T09:28:18;18.60;99.90
39585;DHT22;25278;53.674;10.014;2022-10-17T09:30:50;18.70;99.90
39585;DHT22;25278;53.674;10.014;2022-10-17T09:33:23;18.80;99.90
39585;DHT22;25278;53.674;10.014;2022-10-17T09:35:50;19.00;99.90
39585;DHT22;25278;53.674;10.014;2022-10-17T09:38:18;19.00;99.90
39585;DHT22;25278;53.674;10.014;2022-10-17T09:40:48;18.90;99.90
39585;DHT22;25278;53.674;10.014;2022-10-17T09:43:14;18.80;99.90
39585;DHT22;25278;53.674;10.014;2022-10-17T09:45:54;18.80;99.90
39585;DHT22;25278;53.674;10.014;2022-10-17T09:48:31;18.80;99.90
39585;DHT22;25278;53.674;10.014;2022-10-17T09:51:24;18.90;99.90
39585;DHT22;25278;53.674;10.014;2022-10-17T10:01:27;19.10;99.90
39585;DHT22;25278;53.674;10.014;2022-10-17T10:07:00;20.10;99.90
39585;DHT22;25278;53.674;10.014;2022-10-17T10:09:29;20.10;99.90
39585;DHT22;25278;53.674;10.014;2022-10-17T10:42:03;20.20;99.90
39585;DHT22;25278;53.674;10.014;2022-10-17T10:54:56;21.50;99.90
39585;DHT22;25278;53.674;10.014;2022-10-17T10:57:28;21.70;99.90
39585;DHT22;25278;53.674;10.014;2022-10-17T11:02:48;21.30;99.90
39585;DHT22;25278;53.674;10.014;2022-10-17T11:05:43;21.00;99.90
39585;DHT22;25278;53.674;10.014;2022-10-17T11:11:16;20.60;99.90
39585;DHT22;25278;53.674;10.014;2022-10-17T11:16:28;20.50;99.90
39585;DHT22;25278;53.674;10.014;2022-10-17T11:22:14;20.50;99.90
39585;DHT22;25278;53.674;10.014;2022-10-17T11:24:57;20.40;99.90
39585;DHT22;25278;53.674;10.014;2022-10-17T11:27:25;20.30;99.90
39585;DHT22;25278;53.674;10.014;2022-10-17T11:29:52;20.40;99.90
39585;DHT22;25278;53.674;10.014;2022-10-17T11:32:52;20.40;99.90
39585;DHT22;25278;53.674;10.014;2022-10-17T11:35:33;20.50;99.90
39585;DHT22;25278;53.674;10.014;2022-10-17T11:38:12;20.50;99.90
39585;DHT22;25278;53.674;10.014;2022-10-17T11:40:44;20.60;99.90
39585;DHT22;25278;53.674;10.014;2022-10-17T11:43:18;20.60;99.90
39585;DHT22;25278;53.674;10.014;2022-10-17T11:45:48;20.60;99.90
39585;DHT22;25278;53.674;10.014;2022-10-17T11:51:08;20.60;99.90
39585;DHT22;25278;53.674;10.014;2022-10-17T11:54:10;20.50;99.90
39585;DHT22;25278;53.674;10.014;2022-10-17T11:57:06;20.50;99.90
39585;DHT22;25278;53.674;10.014;2022-10-17T12:02:30;20.40;99.90
39585;DHT22;25278;53.674;10.014;2022-10-17T12:10:32;20.10;99.90
39585;DHT22;25278;53.674;10.014;2022-10-17T12:15:46;19.90;99.90
39585;DHT22;25278;53.674;10.014;2022-10-17T12:18:16;19.80;99.90
39585;DHT22;25278;53.674;10.014;2022-10-17T12:20:42;19.60;99.90
39585;DHT22;25278;53.674;10.014;2022-10-17T12:26:00;19.10;99.90
39585;DHT22;25278;53.674;10.014;2022-10-17T12:33:59;18.60;99.90
39585;DHT22;25278;53.674;10.014;2022-10-17T12:41:52;18.30;99.90
39585;DHT22;25278;53.674;10.014;2022-10-17T12:46:50;18.30;99.90
39585;DHT22;25278;53.674;10.014;2022-10-17T12:49:39;18.30;99.90
39585;DHT22;25278;53.674;10.014;2022-10-17T12:55:12;18.20;99.90
39585;DHT22;25278;53.674;10.014;2022-10-17T12:58:05;18.10;99.90
39585;DHT22;25278;53.674;10.014;2022-10-17T13:03:27;17.90;99.90
39585;DHT22;25278;53.674;10.014;2022-10-17T13:05:59;18.00;99.90
39585;DHT22;25278;53.674;10.014;2022-10-17T13:08:38;18.00;99.90
39585;DHT22;25278;53.674;10.014;2022-10-17T13:11:04;18.00;99.90
39585;DHT22;25278;53.674;10.014;2022-10-17T13:13:47;17.90;99.90
39585;DHT22;25278;53.674;10.014;2022-10-17T13:16:58;17.80;99.90
39585;DHT22;25278;53.674;10.014;2022-10-17T13:19:28;17.90;99.90
39585;DHT22;25278;53.674;10.014;2022-10-17T13:22:00;17.80;99.90
39585;DHT22;25278;53.674;10.014;2022-10-17T13:24:35;17.80;99.90
39585;DHT22;25278;53.674;10.014;2022-10-17T13:27:02;17.80;99.90
39585;DHT22;25278;53.674;10.014;2022-10-17T13:29:30;17.80;99.90
39585;DHT22;25278;53.674;10.014;2022-10-17T13:32:05;17.80;99.90
39585;DHT22;25278;53.674;10.014;2022-10-17T13:34:43;17.70;99.90
39585;DHT22;25278;53.674;10.014;2022-10-17T13:37:14;17.60;99.90
39585;DHT22;25278;53.674;10.014;2022-10-17T13:39:44;17.60;99.90
39585;DHT22;25278;53.674;10.014;2022-10-17T13:42:38;17.60;99.90
39585;DHT22;25278;53.674;10.014;2022-10-17T13:45:47;17.50;99.90
39585;DHT22;25278;53.674;10.014;2022-10-17T13:49:19;17.50;99.90
39585;DHT22;25278;53.674;10.014;2022-10-17T13:51:50;17.50;99.90
39585;DHT22;25278;53.674;10.014;2022-10-17T13:54:45;17.50;99.90
39585;DHT22;25278;53.674;10.014;2022-10-17T13:57:25;17.50;99.90
39585;DHT22;25278;53.674;10.014;2022-10-17T13:59:54;17.50;99.90
39585;DHT22;25278;53.674;10.014;2022-10-17T14:02:25;17.40;99.90
39585;DHT22;25278;53.674;10.014;2022-10-17T14:05:14;17.40;99.90
39585;DHT22;25278;53.674;10.014;2022-10-17T14:10:23;17.40;99.90
39585;DHT22;25278;53.674;10.014;2022-10-17T14:12:50;17.40;99.90
39585;DHT22;25278;53.674;10.014;2022-10-17T14:15:26;17.40;99.90
39585;DHT22;25278;53.674;10.014;2022-10-17T14:18:01;17.30;99.90
39585;DHT22;25278;53.674;10.014;2022-10-17T14:20:27;17.40;99.90
39585;DHT22;25278;53.674;10.014;2022-10-17T14:22:54;17.40;99.90
39585;DHT22;25278;53.674;10.014;2022-10-17T14:25:36;17.30;99.90
39585;DHT22;25278;53.674;10.014;2022-10-17T14:30:38;17.30;99.90
39585;DHT22;25278;53.674;10.014;2022-10-17T14:33:06;17.40;99.90
39585;DHT22;25278;53.674;10.014;2022-10-17T14:35:33;17.40;99.90
39585;DHT22;25278;53.674;10.014;2022-10-17T14:38:04;17.30;99.90
39585;DHT22;25278;53.674;10.014;2022-10-17T14:40:32;17.40;99.90
39585;DHT22;25278;53.674;10.014;2022-10-17T14:43:03;17.40;99.90
39585;DHT22;25278;53.674;10.014;2022-10-17T14:45:32;17.40;99.90
39585;DHT22;25278;53.674;10.014;2022-10-17T14:48:19;17.40;99.90
39585;DHT22;25278;53.674;10.014;2022-10-17T14:51:15;17.40;99.90
39585;DHT22;25278;53.674;10.014;2022-10-17T14:53:43;17.40;99.90
39585;DHT22;25278;53.674;10.014;2022-10-17T14:56:23;17.40;99.90
39585;DHT22;25278;53.674;10.014;2022-10-17T14:58:50;17.40;99.90
39585;DHT22;25278;53.674;10.014;2022-10-17T15:01:17;17.40;99.90
39585;DHT22;25278;53.674;10.014;2022-10-17T15:03:42;17.40;99.90
39585;DHT22;25278;53.674;10.014;2022-10-17T15:06:28;17.40;99.90
39585;DHT22;25278;53.674;10.014;2022-10-17T15:08:54;17.40;99.90
39585;DHT22;25278;53.674;10.014;2022-10-17T15:11:20;17.30;99.90
39585;DHT22;25278;53.674;10.014;2022-10-17T15:13:46;17.30;99.90
39585;DHT22;25278;53.674;10.014;2022-10-17T15:16:29;17.30;99.90
39585;DHT22;25278;53.674;10.014;2022-10-17T15:18:55;17.30;99.90
39585;DHT22;25278;53.674;10.014;2022-10-17T15:21:22;17.30;99.90
39585;DHT22;25278;53.674;10.014;2022-10-17T15:23:49;17.30;99.90
39585;DHT22;25278;53.674;10.014;2022-10-17T15:26:18;17.30;99.90
39585;DHT22;25278;53.674;10.014;2022-10-17T15:28:45;17.30;99.90
39585;DHT22;25278;53.674;10.014;2022-10-17T15:31:13;17.30;99.90
39585;DHT22;25278;53.674;10.014;2022-10-17T15:33:40;17.30;99.90
39585;DHT22;25278;53.674;10.014;2022-10-17T15:36:27;17.20;99.90
39585;DHT22;25278;53.674;10.014;2022-10-17T15:38:57;17.20;99.90
39585;DHT22;25278;53.674;10.014;2022-10-17T15:41:25;17.30;99.90
39585;DHT22;25278;53.674;10.014;2022-10-17T15:43:51;17.30;99.90
39585;DHT22;25278;53.674;10.014;2022-10-17T15:46:20;17.20;99.90
39585;DHT22;25278;53.674;10.014;2022-10-17T15:48:47;17.30;99.90
39585;DHT22;25278;53.674;10.014;2022-10-17T15:51:13;17.20;99.90
39585;DHT22;25278;53.674;10.014;2022-10-17T15:53:38;17.20;99.90
39585;DHT22;25278;53.674;10.014;2022-10-17T15:56:05;17.20;99.90
39585;DHT22;25278;53.674;10.014;2022-10-17T15:58:36;17.20;99.90
39585;DHT22;25278;53.674;10.014;2022-10-17T16:01:28;17.20;99.90
39585;DHT22;25278;53.674;10.014;2022-10-17T16:04:22;17.20;99.90
39585;DHT22;25278;53.674;10.014;2022-10-17T16:07:17;17.20;99.90
39585;DHT22;25278;53.674;10.014;2022-10-17T16:10:30;17.20;99.90
39585;DHT22;25278;53.674;10.014;2022-10-17T16:13:29;17.20;99.90
39585;DHT22;25278;53.674;10.014;2022-10-17T16:16:52;17.20;99.90
39585;DHT22;25278;53.674;10.014;2022-10-17T16:20:04;17.20;99.90
39585;DHT22;25278;53.674;10.014;2022-10-17T16:27:13;17.10;99.90
39585;DHT22;25278;53.674;10.014;2022-10-17T16:33:29;17.10;99.90
39585;DHT22;25278;53.674;10.014;2022-10-17T16:35:59;17.10;99.90
39585;DHT22;25278;53.674;10.014;2022-10-17T16:38:48;17.10;99.90
39585;DHT22;25278;53.674;10.014;2022-10-17T16:41:37;17.10;99.90
39585;DHT22;25278;53.674;10.014;2022-10-17T16:44:44;17.00;99.90
39585;DHT22;25278;53.674;10.014;2022-10-17T16:50:24;17.00;99.90
39585;DHT22;25278;53.674;10.014;2022-10-17T16:53:00;17.00;99.90
39585;DHT22;25278;53.674;10.014;2022-10-17T16:55:38;17.00;99.90
39585;DHT22;25278;53.674;10.014;2022-10-17T16:58:04;17.00;99.90
39585;DHT22;25278;53.674;10.014;2022-10-17T17:00:30;17.00;99.90
39585;DHT22;25278;53.674;10.014;2022-10-17T17:02:58;16.90;99.90
39585;DHT22;25278;53.674;10.014;2022-10-17T17:05:54;16.90;99.90
39585;DHT22;25278;53.674;10.014;2022-10-17T17:12:12;16.90;99.90
39585;DHT22;25278;53.674;10.014;2022-10-17T17:14:46;16.90;99.90
39585;DHT22;25278;53.674;10.014;2022-10-17T17:17:25;16.90;99.90
39585;DHT22;25278;53.674;10.014;2022-10-17T17:19:52;16.90;99.90
39585;DHT22;25278;53.674;10.014;2022-10-17T17:22:20;16.80;99.90
39585;DHT22;25278;53.674;10.014;2022-10-17T17:24:46;16.90;99.90
39585;DHT22;25278;53.674;10.014;2022-10-17T17:27:13;16.90;99.90
39585;DHT22;25278;53.674;10.014;2022-10-17T17:29:46;16.80;99.90
39585;DHT22;25278;53.674;10.014;2022-10-17T17:32:50;16.90;99.90
39585;DHT22;25278;53.674;10.014;2022-10-17T17:36:07;16.80;99.90
39585;DHT22;25278;53.674;10.014;2022-10-17T17:38:37;16.80;99.90
39585;DHT22;25278;53.674;10.014;2022-10-17T17:44:36;16.80;99.90
39585;DHT22;25278;53.674;10.014;2022-10-17T17:47:05;16.80;99.90
39585;DHT22;25278;53.674;10.014;2022-10-17T17:53:26;16.80;99.90
39585;DHT22;25278;53.674;10.014;2022-10-17T17:56:30;16.80;99.90
39585;DHT22;25278;53.674;10.014;2022-10-17T17:59:27;16.80;99.90
39585;DHT22;25278;53.674;10.014;2022-10-17T18:02:05;16.80;99.90
39585;DHT22;25278;53.674;10.014;2022-10-17T18:05:04;16.80;99.90
39585;DHT22;25278;53.674;10.014;2022-10-17T18:23:43;16.70;99.90
39585;DHT22;25278;53.674;10.014;2022-10-17T18:33:17;16.80;99.90
39585;DHT22;25278;53.674;10.014;2022-10-17T18:36:08;16.90;99.90
39585;DHT22;25278;53.674;10.014;2022-10-17T18:39:28;16.90;99.90
39585;DHT22;25278;53.674;10.014;2022-10-17T18:46:45;16.80;99.90
39585;DHT22;25278;53.674;10.014;2022-10-17T18:50:20;16.80;99.90
39585;DHT22;25278;53.674;10.014;2022-10-17T18:53:10;16.80;99.90
39585;DHT22;25278;53.674;10.014;2022-10-17T18:56:14;16.50;99.90
39585;DHT22;25278;53.674;10.014;2022-10-17T19:33:06;15.50;99.90
39585;DHT22;25278;53.674;10.014;2022-10-17T19:46:23;15.30;99.90
39585;DHT22;25278;53.674;10.014;2022-10-17T19:53:35;15.20;99.90
39585;DHT22;25278;53.674;10.014;2022-10-17T19:56:30;15.30;99.90
39585;DHT22;25278;53.674;10.014;2022-10-17T20:03:03;15.20;99.90
39585;DHT22;25278;53.674;10.014;2022-10-17T20:05:35;15.30;99.90
39585;DHT22;25278;53.674;10.014;2022-10-17T20:09:14;15.20;99.90
39585;DHT22;25278;53.674;10.014;2022-10-17T20:14:48;15.00;99.90
39585;DHT22;25278;53.674;10.014;2022-10-17T20:17:14;15.10;99.90
39585;DHT22;25278;53.674;10.014;2022-10-17T20:23:13;14.90;99.90
39585;DHT22;25278;53.674;10.014;2022-10-17T20:25:44;14.90;99.90
39585;DHT22;25278;53.674;10.014;2022-10-17T20:32:35;14.90;99.90
39585;DHT22;25278;53.674;10.014;2022-10-17T20:35:07;14.90;99.90
39585;DHT22;25278;53.674;10.014;2022-10-17T20:37:41;14.90;99.90
39585;DHT22;25278;53.674;10.014;2022-10-17T20:40:22;14.80;99.90
39585;DHT22;25278;53.674;10.014;2022-10-17T20:42:55;14.90;99.90
39585;DHT22;25278;53.674;10.014;2022-10-17T20:45:29;14.90;99.90
39585;DHT22;25278;53.674;10.014;2022-10-17T20:47:59;14.80;99.90
39585;DHT22;25278;53.674;10.014;2022-10-17T20:50:34;14.90;99.90
39585;DHT22;25278;53.674;10.014;2022-10-17T20:53:56;14.90;99.90
39585;DHT22;25278;53.674;10.014;2022-10-17T20:57:09;14.90;99.90
39585;DHT22;25278;53.674;10.014;2022-10-17T20:59:37;14.80;99.90
39585;DHT22;25278;53.674;10.014;2022-10-17T21:02:04;14.80;99.90
39585;DHT22;25278;53.674;10.014;2022-10-17T21:04:30;14.80;99.90
39585;DHT22;25278;53.674;10.014;2022-10-17T21:07:23;14.80;99.90
39585;DHT22;25278;53.674;10.014;2022-10-17T21:10:21;14.80;99.90
39585;DHT22;25278;53.674;10.014;2022-10-17T21:12:46;14.80;99.90
39585;DHT22;25278;53.674;10.014;2022-10-17T21:15:15;14.80;99.90
39585;DHT22;25278;53.674;10.014;2022-10-17T21:17:44;14.80;99.90
39585;DHT22;25278;53.674;10.014;2022-10-17T21:23:07;14.80;99.90
39585;DHT22;25278;53.674;10.014;2022-10-17T21:25:36;14.70;99.90
39585;DHT22;25278;53.674;10.014;2022-10-17T21:28:01;14.70;99.90
39585;DHT22;25278;53.674;10.014;2022-10-17T21:30:27;14.80;99.90
39585;DHT22;25278;53.674;10.014;2022-10-17T21:32:55;14.80;99.90
39585;DHT22;25278;53.674;10.014;2022-10-17T21:35:27;14.80;99.90
39585;DHT22;25278;53.674;10.014;2022-10-17T21:37:55;14.80;99.90
39585;DHT22;25278;53.674;10.014;2022-10-17T21:40:26;14.80;99.90
39585;DHT22;25278;53.674;10.014;2022-10-17T21:42:54;14.70;99.90
39585;DHT22;25278;53.674;10.014;2022-10-17T21:45:34;14.70;99.90
39585;DHT22;25278;53.674;10.014;2022-10-17T21:48:06;14.70;99.90
39585;DHT22;25278;53.674;10.014;2022-10-17T21:50:31;14.70;99.90
39585;DHT22;25278;53.674;10.014;2022-10-17T21:52:57;14.70;99.90
39585;DHT22;25278;53.674;10.014;2022-10-17T21:55:22;14.70;99.90
39585;DHT22;25278;53.674;10.014;2022-10-17T21:57:50;14.80;99.90
39585;DHT22;25278;53.674;10.014;2022-10-17T22:00:15;14.80;99.90
39585;DHT22;25278;53.674;10.014;2022-10-17T22:02:41;14.80;99.90
39585;DHT22;25278;53.674;10.014;2022-10-17T22:05:44;14.80;99.90
39585;DHT22;25278;53.674;10.014;2022-10-17T22:08:12;14.70;99.90
39585;DHT22;25278;53.674;10.014;2022-10-17T22:28:19;14.70;99.90
39585;DHT22;25278;53.674;10.014;2022-10-17T23:06:59;14.80;99.90
39585;DHT22;25278;53.674;10.014;2022-10-17T23:09:25;14.80;99.90
39585;DHT22;25278;53.674;10.014;2022-10-17T23:11:50;14.80;99.90
39585;DHT22;25278;53.674;10.014;2022-10-17T23:14:16;14.80;99.90
39585;DHT22;25278;53.674;10.014;2022-10-17T23:16:41;14.70;99.90
39585;DHT22;25278;53.674;10.014;2022-10-17T23:19:07;14.70;99.90
39585;DHT22;25278;53.674;10.014;2022-10-17T23:21:32;14.70;99.90
39585;DHT22;25278;53.674;10.014;2022-10-17T23:23:58;14.70;99.90
39585;DHT22;25278;53.674;10.014;2022-10-17T23:26:23;14.70;99.90
39585;DHT22;25278;53.674;10.014;2022-10-17T23:28:52;14.80;99.90
39585;DHT22;25278;53.674;10.014;2022-10-17T23:31:19;14.70;99.90
39585;DHT22;25278;53.674;10.014;2022-10-17T23:33:46;14.70;99.90
39585;DHT22;25278;53.674;10.014;2022-10-17T23:36:14;14.70;99.90
39585;DHT22;25278;53.674;10.014;2022-10-17T23:38:41;14.60;99.90
39585;DHT22;25278;53.674;10.014;2022-10-17T23:41:08;14.60;99.90
39585;DHT22;25278;53.674;10.014;2022-10-17T23:43:34;14.60;99.90
39585;DHT22;25278;53.674;10.014;2022-10-17T23:46:00;14.60;99.90
39585;DHT22;25278;53.674;10.014;2022-10-17T23:48:27;14.60;99.90
39585;DHT22;25278;53.674;10.014;2022-10-17T23:50:52;14.60;99.90
39585;DHT22;25278;53.674;10.014;2022-10-17T23:53:19;14.60;99.90
39585;DHT22;25278;53.674;10.014;2022-10-17T23:55:44;14.50;99.90
39585;DHT22;25278;53.674;10.014;2022-10-17T23:58:10;14.50;99.90
